sensor_id;sensor_type;location;lat;lon;timestamp;pressure;altitude;pressure_sealevel;temperature;humidity
4012;BME280;2020;48.682;9.024;2023-06-14T00:00:03;95943.66;;;15.07;46.27
4012;BME280;2020;48.682;9.024;2023-06-14T00:02:29;95950.09;;;15.04;47.10
4012;BME280;2020;48.682;9.024;2023-06-14T00:04:54;95945.88;;;15.03;46.94
4012;BME280;2020;48.682;9.024;2023-06-14T00:07:36;95946.66;;;15.04;46.58
4012;BME280;2020;48.682;9.024;2023-06-14T00:10:03;95954.88;;;14.87;47.44
4012;BME280;2020;48.682;9.024;2023-06-14T00:12:29;95952.63;;;14.84;47.62
4012;BME280;2020;48.682;9.024;2023-06-14T00:14:54;95957.94;;;14.98;47.60
4012;BME280;2020;48.682;9.024;2023-06-14T00:17:19;95957.06;;;14.84;47.92
4012;BME280;2020;48.682;9.024;2023-06-14T00:19:45;95952.63;;;14.84;47.30
4012;BME280;2020;48.682;9.024;2023-06-14T00:22:11;95948.47;;;14.61;47.33
4012;BME280;2020;48.682;9.024;2023-06-14T00:24:37;95957.56;;;14.66;47.58
4012;BME280;2020;48.682;9.024;2023-06-14T00:27:02;95945.94;;;14.40;47.87
4012;BME280;2020;48.682;9.024;2023-06-14T00:29:28;95955.63;;;14.46;48.33
4012;BME280;2020;48.682;9.024;2023-06-14T00:31:53;95944.38;;;14.52;48.33
4012;BME280;2020;48.682;9.024;2023-06-14T00:34:18;95953.16;;;14.38;48.86
4012;BME280;2020;48.682;9.024;2023-06-14T00:36:43;95954.69;;;14.25;48.89
4012;BME280;2020;48.682;9.024;2023-06-14T00:39:09;95952.31;;;14.30;49.35
4012;BME280;2020;48.682;9.024;2023-06-14T00:41:34;95944.63;;;14.22;48.96
4012;BME280;2020;48.682;9.024;2023-06-14T00:44:00;95936.53;;;14.17;48.86
4012;BME280;2020;48.682;9.024;2023-06-14T00:46:25;95948.63;;;14.18;48.99
4012;BME280;2020;48.682;9.024;2023-06-14T00:48:51;95946.63;;;14.20;49.45
4012;BME280;2020;48.682;9.024;2023-06-14T00:51:16;95947.03;;;14.24;48.84
4012;BME280;2020;48.682;9.024;2023-06-14T00:53:41;95950.22;;;14.19;49.35
4012;BME280;2020;48.682;9.024;2023-06-14T00:56:11;95947.09;;;14.30;49.00
4012;BME280;2020;48.682;9.024;2023-06-14T00:58:38;95945.09;;;14.39;48.52
4012;BME280;2020;48.682;9.024;2023-06-14T01:01:03;95951.41;;;14.16;48.59
4012;BME280;2020;48.682;9.024;2023-06-14T01:03:29;95947.31;;;14.07;49.69
4012;BME280;2020;48.682;9.024;2023-06-14T01:06:08;95941.44;;;13.77;50.29
4012;BME280;2020;48.682;9.024;2023-06-14T01:08:47;95949.16;;;13.85;50.27
4012;BME280;2020;48.682;9.024;2023-06-14T01:11:22;95944.81;;;13.92;50.33
4012;BME280;2020;48.682;9.024;2023-06-14T01:13:51;95942.81;;;13.94;50.11
4012;BME280;2020;48.682;9.024;2023-06-14T01:16:17;95946.06;;;14.03;49.93
4012;BME280;2020;48.682;9.024;2023-06-14T01:18:43;95946.84;;;13.97;50.42
4012;BME280;2020;48.682;9.024;2023-06-14T01:21:23;95952.00;;;13.90;50.84
4012;BME280;2020;48.682;9.024;2023-06-14T01:23:49;95945.16;;;13.89;50.01
4012;BME280;2020;48.682;9.024;2023-06-14T01:26:19;95949.59;;;13.88;50.24
4012;BME280;2020;48.682;9.024;2023-06-14T01:28:44;95951.47;;;13.73;51.26
4012;BME280;2020;48.682;9.024;2023-06-14T01:31:15;95947.66;;;13.54;51.45
4012;BME280;2020;48.682;9.024;2023-06-14T01:33:41;95952.34;;;13.58;50.66
4012;BME280;2020;48.682;9.024;2023-06-14T01:36:08;95960.06;;;13.67;50.46
4012;BME280;2020;48.682;9.024;2023-06-14T01:38:34;95952.91;;;13.54;51.00
4012;BME280;2020;48.682;9.024;2023-06-14T01:41:01;95949.50;;;13.53;51.57
4012;BME280;2020;48.682;9.024;2023-06-14T01:43:29;95953.56;;;13.41;51.63
4012;BME280;2020;48.682;9.024;2023-06-14T01:45:57;95951.41;;;13.44;51.84
4012;BME280;2020;48.682;9.024;2023-06-14T01:48:23;95954.72;;;13.38;51.42
4012;BME280;2020;48.682;9.024;2023-06-14T01:50:49;95953.03;;;13.45;51.06
4012;BME280;2020;48.682;9.024;2023-06-14T01:53:14;95953.63;;;13.48;51.70
4012;BME280;2020;48.682;9.024;2023-06-14T01:55:40;95951.50;;;13.36;51.50
4012;BME280;2020;48.682;9.024;2023-06-14T01:58:08;95952.59;;;13.27;51.39
4012;BME280;2020;48.682;9.024;2023-06-14T02:00:34;95954.59;;;13.25;51.61
4012;BME280;2020;48.682;9.024;2023-06-14T02:02:59;95953.72;;;13.18;51.95
4012;BME280;2020;48.682;9.024;2023-06-14T02:05:25;95954.97;;;13.22;51.13
4012;BME280;2020;48.682;9.024;2023-06-14T02:07:51;95951.25;;;13.16;51.63
4012;BME280;2020;48.682;9.024;2023-06-14T02:10:18;95958.41;;;13.07;52.32
4012;BME280;2020;48.682;9.024;2023-06-14T02:12:44;95957.69;;;13.13;51.51
4012;BME280;2020;48.682;9.024;2023-06-14T02:15:09;95951.94;;;13.03;51.35
4012;BME280;2020;48.682;9.024;2023-06-14T02:17:42;95958.84;;;12.74;52.77
4012;BME280;2020;48.682;9.024;2023-06-14T02:20:08;95953.34;;;12.54;53.81
4012;BME280;2020;48.682;9.024;2023-06-14T02:22:34;95952.31;;;12.40;53.77
4012;BME280;2020;48.682;9.024;2023-06-14T02:24:59;95958.09;;;12.50;53.77
4012;BME280;2020;48.682;9.024;2023-06-14T02:27:25;95957.31;;;12.65;53.04
4012;BME280;2020;48.682;9.024;2023-06-14T02:29:50;95955.94;;;12.69;52.95
4012;BME280;2020;48.682;9.024;2023-06-14T02:32:15;95957.09;;;12.66;52.64
4012;BME280;2020;48.682;9.024;2023-06-14T02:34:41;95961.53;;;12.66;52.82
4012;BME280;2020;48.682;9.024;2023-06-14T02:37:06;95957.22;;;12.73;52.88
4012;BME280;2020;48.682;9.024;2023-06-14T02:39:32;95950.81;;;12.76;53.08
4012;BME280;2020;48.682;9.024;2023-06-14T02:41:57;95958.47;;;12.77;52.71
4012;BME280;2020;48.682;9.024;2023-06-14T02:44:25;95947.50;;;12.67;53.60
4012;BME280;2020;48.682;9.024;2023-06-14T02:46:52;95954.34;;;12.68;53.36
4012;BME280;2020;48.682;9.024;2023-06-14T02:49:18;95949.28;;;12.51;53.18
4012;BME280;2020;48.682;9.024;2023-06-14T02:51:43;95947.09;;;12.40;53.73
4012;BME280;2020;48.682;9.024;2023-06-14T02:54:08;95950.88;;;12.52;54.24
4012;BME280;2020;48.682;9.024;2023-06-14T02:56:33;95949.09;;;12.38;53.96
4012;BME280;2020;48.682;9.024;2023-06-14T02:58:59;95956.38;;;12.27;54.71
4012;BME280;2020;48.682;9.024;2023-06-14T03:01:26;95946.94;;;12.26;55.09
4012;BME280;2020;48.682;9.024;2023-06-14T03:03:58;95952.31;;;12.10;55.53
4012;BME280;2020;48.682;9.024;2023-06-14T03:06:24;95949.63;;;12.18;55.26
4012;BME280;2020;48.682;9.024;2023-06-14T03:08:50;95952.22;;;12.18;55.16
4012;BME280;2020;48.682;9.024;2023-06-14T03:11:15;95950.88;;;12.22;55.61
4012;BME280;2020;48.682;9.024;2023-06-14T03:13:42;95951.59;;;12.16;56.24
4012;BME280;2020;48.682;9.024;2023-06-14T03:16:08;95958.00;;;11.90;56.28
4012;BME280;2020;48.682;9.024;2023-06-14T03:18:34;95958.34;;;11.87;56.85
4012;BME280;2020;48.682;9.024;2023-06-14T03:21:04;95955.16;;;11.77;57.02
4012;BME280;2020;48.682;9.024;2023-06-14T03:23:30;95959.50;;;11.84;57.13
4012;BME280;2020;48.682;9.024;2023-06-14T03:25:55;95963.56;;;11.87;55.98
4012;BME280;2020;48.682;9.024;2023-06-14T03:28:21;95967.59;;;11.90;55.93
4012;BME280;2020;48.682;9.024;2023-06-14T03:30:46;95963.91;;;11.84;55.20
4012;BME280;2020;48.682;9.024;2023-06-14T03:33:11;95971.78;;;11.76;57.17
4012;BME280;2020;48.682;9.024;2023-06-14T03:35:37;95974.75;;;11.73;57.59
4012;BME280;2020;48.682;9.024;2023-06-14T03:38:02;95979.44;;;11.77;57.65
4012;BME280;2020;48.682;9.024;2023-06-14T03:40:28;95981.25;;;11.77;56.01
4012;BME280;2020;48.682;9.024;2023-06-14T03:42:54;95985.47;;;11.78;56.56
4012;BME280;2020;48.682;9.024;2023-06-14T03:45:20;95978.72;;;11.83;57.34
4012;BME280;2020;48.682;9.024;2023-06-14T03:47:46;95983.84;;;11.77;56.91
4012;BME280;2020;48.682;9.024;2023-06-14T03:50:11;95991.97;;;11.82;56.51
4012;BME280;2020;48.682;9.024;2023-06-14T03:52:37;95982.28;;;11.67;57.39
4012;BME280;2020;48.682;9.024;2023-06-14T03:55:03;95990.09;;;11.67;56.97
4012;BME280;2020;48.682;9.024;2023-06-14T03:57:29;95988.06;;;11.54;56.73
4012;BME280;2020;48.682;9.024;2023-06-14T03:59:55;95986.03;;;11.65;58.45
4012;BME280;2020;48.682;9.024;2023-06-14T04:02:20;95993.00;;;11.73;57.66
4012;BME280;2020;48.682;9.024;2023-06-14T04:04:45;95995.97;;;11.69;57.36
4012;BME280;2020;48.682;9.024;2023-06-14T04:07:12;96002.84;;;11.62;58.35
4012;BME280;2020;48.682;9.024;2023-06-14T04:09:38;96001.03;;;11.63;57.80
4012;BME280;2020;48.682;9.024;2023-06-14T04:12:04;96007.72;;;11.65;56.86
4012;BME280;2020;48.682;9.024;2023-06-14T04:14:30;96009.34;;;11.66;57.32
4012;BME280;2020;48.682;9.024;2023-06-14T04:16:55;96009.75;;;11.55;58.63
4012;BME280;2020;48.682;9.024;2023-06-14T04:19:21;96016.53;;;11.64;58.66
4012;BME280;2020;48.682;9.024;2023-06-14T04:21:46;96015.88;;;11.62;59.40
4012;BME280;2020;48.682;9.024;2023-06-14T04:24:11;96008.75;;;11.56;59.56
4012;BME280;2020;48.682;9.024;2023-06-14T04:26:39;96014.66;;;11.50;59.75
4012;BME280;2020;48.682;9.024;2023-06-14T04:29:05;96025.03;;;11.58;59.36
4012;BME280;2020;48.682;9.024;2023-06-14T04:31:31;96017.91;;;11.52;60.20
4012;BME280;2020;48.682;9.024;2023-06-14T04:34:02;96018.84;;;11.59;58.50
4012;BME280;2020;48.682;9.024;2023-06-14T04:36:33;96018.38;;;11.79;58.61
4012;BME280;2020;48.682;9.024;2023-06-14T04:39:00;96022.59;;;11.80;59.18
4012;BME280;2020;48.682;9.024;2023-06-14T04:41:26;96018.25;;;11.95;57.22
4012;BME280;2020;48.682;9.024;2023-06-14T04:43:55;96025.50;;;11.85;58.39
4012;BME280;2020;48.682;9.024;2023-06-14T04:46:22;96018.94;;;11.89;57.73
4012;BME280;2020;48.682;9.024;2023-06-14T04:48:47;96025.88;;;12.05;58.56
4012;BME280;2020;48.682;9.024;2023-06-14T04:51:13;96025.09;;;11.96;57.18
4012;BME280;2020;48.682;9.024;2023-06-14T04:53:38;96031.25;;;12.04;57.82
4012;BME280;2020;48.682;9.024;2023-06-14T04:56:03;96029.75;;;12.09;58.27
4012;BME280;2020;48.682;9.024;2023-06-14T04:58:29;96025.56;;;12.23;57.28
4012;BME280;2020;48.682;9.024;2023-06-14T05:00:55;96032.75;;;12.21;58.38
4012;BME280;2020;48.682;9.024;2023-06-14T05:03:22;96041.28;;;12.15;57.74
4012;BME280;2020;48.682;9.024;2023-06-14T05:05:47;96041.59;;;12.35;58.33
4012;BME280;2020;48.682;9.024;2023-06-14T05:08:13;96033.69;;;12.43;58.09
4012;BME280;2020;48.682;9.024;2023-06-14T05:10:38;96036.66;;;12.40;58.04
4012;BME280;2020;48.682;9.024;2023-06-14T05:13:03;96041.63;;;12.50;58.17
4012;BME280;2020;48.682;9.024;2023-06-14T05:15:29;96040.91;;;12.56;57.85
4012;BME280;2020;48.682;9.024;2023-06-14T05:17:54;96045.22;;;12.49;58.19
4012;BME280;2020;48.682;9.024;2023-06-14T05:20:21;96046.06;;;12.65;56.99
4012;BME280;2020;48.682;9.024;2023-06-14T05:22:48;96043.19;;;12.75;56.64
4012;BME280;2020;48.682;9.024;2023-06-14T05:25:15;96049.06;;;12.92;55.82
4012;BME280;2020;48.682;9.024;2023-06-14T05:27:40;96050.38;;;13.02;54.70
4012;BME280;2020;48.682;9.024;2023-06-14T05:30:07;96043.63;;;13.08;54.90
4012;BME280;2020;48.682;9.024;2023-06-14T05:32:33;96042.91;;;13.14;56.08
4012;BME280;2020;48.682;9.024;2023-06-14T05:34:59;96049.41;;;13.19;56.27
4012;BME280;2020;48.682;9.024;2023-06-14T05:37:24;96043.34;;;13.33;56.05
4012;BME280;2020;48.682;9.024;2023-06-14T05:39:50;96045.41;;;13.53;55.74
4012;BME280;2020;48.682;9.024;2023-06-14T05:42:15;96046.78;;;13.70;55.29
4012;BME280;2020;48.682;9.024;2023-06-14T05:44:40;96052.16;;;13.84;54.78
4012;BME280;2020;48.682;9.024;2023-06-14T05:47:05;96051.06;;;13.93;54.85
4012;BME280;2020;48.682;9.024;2023-06-14T05:49:31;96049.31;;;14.22;54.58
4012;BME280;2020;48.682;9.024;2023-06-14T05:51:56;96047.13;;;14.54;53.50
4012;BME280;2020;48.682;9.024;2023-06-14T05:54:21;96049.59;;;14.62;53.98
4012;BME280;2020;48.682;9.024;2023-06-14T05:56:46;96046.88;;;14.71;51.81
4012;BME280;2020;48.682;9.024;2023-06-14T05:59:12;96046.84;;;14.99;50.12
4012;BME280;2020;48.682;9.024;2023-06-14T06:01:37;96045.53;;;15.24;49.45
4012;BME280;2020;48.682;9.024;2023-06-14T06:04:02;96046.88;;;15.55;49.51
4012;BME280;2020;48.682;9.024;2023-06-14T06:06:28;96045.38;;;15.94;49.77
4012;BME280;2020;48.682;9.024;2023-06-14T06:08:53;96050.66;;;16.21;48.01
4012;BME280;2020;48.682;9.024;2023-06-14T06:11:19;96050.25;;;16.37;45.45
4012;BME280;2020;48.682;9.024;2023-06-14T06:13:45;96063.97;;;16.53;47.02
4012;BME280;2020;48.682;9.024;2023-06-14T06:16:10;96059.13;;;16.77;48.36
4012;BME280;2020;48.682;9.024;2023-06-14T06:18:36;96056.28;;;16.85;44.41
4012;BME280;2020;48.682;9.024;2023-06-14T06:21:01;96056.91;;;16.87;43.96
4012;BME280;2020;48.682;9.024;2023-06-14T06:23:28;96058.28;;;16.90;42.97
4012;BME280;2020;48.682;9.024;2023-06-14T06:25:53;96058.69;;;16.87;43.24
4012;BME280;2020;48.682;9.024;2023-06-14T06:28:18;96058.69;;;17.07;42.19
4012;BME280;2020;48.682;9.024;2023-06-14T06:30:44;96058.66;;;17.20;42.18
4012;BME280;2020;48.682;9.024;2023-06-14T06:33:09;96057.00;;;17.33;42.45
4012;BME280;2020;48.682;9.024;2023-06-14T06:35:34;96057.41;;;17.36;41.76
4012;BME280;2020;48.682;9.024;2023-06-14T06:38:00;96056.53;;;17.49;41.15
4012;BME280;2020;48.682;9.024;2023-06-14T06:40:26;96058.88;;;17.64;41.46
4012;BME280;2020;48.682;9.024;2023-06-14T06:42:51;96059.19;;;17.81;41.14
4012;BME280;2020;48.682;9.024;2023-06-14T06:45:16;96071.06;;;17.97;41.15
4012;BME280;2020;48.682;9.024;2023-06-14T06:47:41;96066.75;;;18.10;41.42
4012;BME280;2020;48.682;9.024;2023-06-14T06:50:07;96069.94;;;18.19;41.79
4012;BME280;2020;48.682;9.024;2023-06-14T06:52:33;96073.94;;;18.28;41.87
4012;BME280;2020;48.682;9.024;2023-06-14T06:54:58;96073.84;;;18.41;41.78
4012;BME280;2020;48.682;9.024;2023-06-14T06:57:23;96081.72;;;18.41;41.89
4012;BME280;2020;48.682;9.024;2023-06-14T06:59:49;96083.06;;;18.51;40.63
4012;BME280;2020;48.682;9.024;2023-06-14T07:02:15;96086.72;;;18.50;41.07
4012;BME280;2020;48.682;9.024;2023-06-14T07:04:40;96082.25;;;18.50;41.13
4012;BME280;2020;48.682;9.024;2023-06-14T07:07:06;96089.97;;;18.52;41.27
4012;BME280;2020;48.682;9.024;2023-06-14T07:09:31;96090.47;;;18.86;41.03
4012;BME280;2020;48.682;9.024;2023-06-14T07:11:57;96090.09;;;19.08;40.00
4012;BME280;2020;48.682;9.024;2023-06-14T07:14:22;96089.06;;;19.09;40.16
4012;BME280;2020;48.682;9.024;2023-06-14T07:16:48;96084.81;;;19.08;39.72
4012;BME280;2020;48.682;9.024;2023-06-14T07:19:14;96092.69;;;19.33;40.09
4012;BME280;2020;48.682;9.024;2023-06-14T07:21:40;96092.03;;;19.38;39.56
4012;BME280;2020;48.682;9.024;2023-06-14T07:24:06;96101.09;;;19.61;39.31
4012;BME280;2020;48.682;9.024;2023-06-14T07:26:31;96099.59;;;19.83;38.05
4012;BME280;2020;48.682;9.024;2023-06-14T07:28:57;96097.97;;;19.82;37.50
4012;BME280;2020;48.682;9.024;2023-06-14T07:31:22;96099.22;;;19.98;37.92
4012;BME280;2020;48.682;9.024;2023-06-14T07:33:47;96099.84;;;20.12;36.31
4012;BME280;2020;48.682;9.024;2023-06-14T07:36:12;96108.03;;;20.23;37.74
4012;BME280;2020;48.682;9.024;2023-06-14T07:38:38;96106.88;;;20.19;35.93
4012;BME280;2020;48.682;9.024;2023-06-14T07:41:05;96109.88;;;20.34;36.48
4012;BME280;2020;48.682;9.024;2023-06-14T07:43:30;96117.94;;;20.39;35.51
4012;BME280;2020;48.682;9.024;2023-06-14T07:45:56;96122.06;;;20.35;36.09
4012;BME280;2020;48.682;9.024;2023-06-14T07:48:22;96119.09;;;20.43;36.19
4012;BME280;2020;48.682;9.024;2023-06-14T07:50:47;96121.22;;;20.65;35.85
4012;BME280;2020;48.682;9.024;2023-06-14T07:53:13;96118.25;;;20.73;35.74
4012;BME280;2020;48.682;9.024;2023-06-14T07:55:38;96113.47;;;20.94;35.91
4012;BME280;2020;48.682;9.024;2023-06-14T07:58:05;96115.06;;;20.95;35.69
4012;BME280;2020;48.682;9.024;2023-06-14T08:00:31;96116.22;;;20.99;35.70
4012;BME280;2020;48.682;9.024;2023-06-14T08:02:57;96121.72;;;21.10;35.57
4012;BME280;2020;48.682;9.024;2023-06-14T08:05:24;96119.09;;;21.22;35.91
4012;BME280;2020;48.682;9.024;2023-06-14T08:07:49;96122.84;;;21.38;36.69
4012;BME280;2020;48.682;9.024;2023-06-14T08:10:15;96129.06;;;21.31;37.06
4012;BME280;2020;48.682;9.024;2023-06-14T08:12:40;96118.47;;;21.31;37.20
4012;BME280;2020;48.682;9.024;2023-06-14T08:15:06;96126.09;;;21.16;36.89
4012;BME280;2020;48.682;9.024;2023-06-14T08:17:32;96127.25;;;21.20;37.47
4012;BME280;2020;48.682;9.024;2023-06-14T08:19:58;96121.25;;;21.37;37.37
4012;BME280;2020;48.682;9.024;2023-06-14T08:22:23;96120.88;;;21.57;36.55
4012;BME280;2020;48.682;9.024;2023-06-14T08:24:53;96132.16;;;21.52;37.00
4012;BME280;2020;48.682;9.024;2023-06-14T08:27:19;96134.09;;;21.69;36.75
4012;BME280;2020;48.682;9.024;2023-06-14T08:29:44;96132.59;;;21.73;38.22
4012;BME280;2020;48.682;9.024;2023-06-14T08:32:09;96135.84;;;22.04;36.46
4012;BME280;2020;48.682;9.024;2023-06-14T08:34:35;96122.22;;;22.12;37.39
4012;BME280;2020;48.682;9.024;2023-06-14T08:37:00;96130.06;;;22.07;36.50
4012;BME280;2020;48.682;9.024;2023-06-14T08:39:26;96129.41;;;22.00;37.24
4012;BME280;2020;48.682;9.024;2023-06-14T08:41:52;96135.84;;;22.04;36.56
4012;BME280;2020;48.682;9.024;2023-06-14T08:44:17;96135.56;;;22.17;36.43
4012;BME280;2020;48.682;9.024;2023-06-14T08:46:43;96128.91;;;22.32;35.03
4012;BME280;2020;48.682;9.024;2023-06-14T08:49:11;96121.81;;;22.49;35.21
4012;BME280;2020;48.682;9.024;2023-06-14T08:51:37;96133.47;;;22.48;34.68
4012;BME280;2020;48.682;9.024;2023-06-14T08:54:03;96143.44;;;22.29;33.47
4012;BME280;2020;48.682;9.024;2023-06-14T08:56:30;96135.97;;;22.72;34.91
4012;BME280;2020;48.682;9.024;2023-06-14T08:58:57;96138.69;;;22.77;34.48
4012;BME280;2020;48.682;9.024;2023-06-14T09:01:23;96134.84;;;22.85;33.86
4012;BME280;2020;48.682;9.024;2023-06-14T09:03:49;96140.78;;;22.75;33.97
4012;BME280;2020;48.682;9.024;2023-06-14T09:06:15;96139.06;;;23.20;33.84
4012;BME280;2020;48.682;9.024;2023-06-14T09:08:44;96143.69;;;23.25;33.04
4012;BME280;2020;48.682;9.024;2023-06-14T09:11:11;96139.13;;;23.43;32.48
4012;BME280;2020;48.682;9.024;2023-06-14T09:13:41;96140.25;;;23.47;32.00
4012;BME280;2020;48.682;9.024;2023-06-14T09:16:07;96146.19;;;23.54;33.34
4012;BME280;2020;48.682;9.024;2023-06-14T09:18:37;96132.97;;;23.59;32.27
4012;BME280;2020;48.682;9.024;2023-06-14T09:21:03;96148.38;;;23.85;32.41
4012;BME280;2020;48.682;9.024;2023-06-14T09:23:33;96143.59;;;24.04;32.58
4012;BME280;2020;48.682;9.024;2023-06-14T09:26:01;96148.41;;;24.07;32.64
4012;BME280;2020;48.682;9.024;2023-06-14T09:28:27;96148.53;;;23.95;33.60
4012;BME280;2020;48.682;9.024;2023-06-14T09:30:53;96147.78;;;24.00;31.88
4012;BME280;2020;48.682;9.024;2023-06-14T09:33:18;96153.13;;;24.00;32.71
4012;BME280;2020;48.682;9.024;2023-06-14T09:35:45;96153.38;;;24.26;32.22
4012;BME280;2020;48.682;9.024;2023-06-14T09:38:11;96144.09;;;24.01;30.91
4012;BME280;2020;48.682;9.024;2023-06-14T09:40:36;96146.31;;;24.09;32.08
4012;BME280;2020;48.682;9.024;2023-06-14T09:43:05;96146.81;;;24.06;31.76
4012;BME280;2020;48.682;9.024;2023-06-14T09:45:31;96145.09;;;24.49;32.37
4012;BME280;2020;48.682;9.024;2023-06-14T09:47:58;96149.63;;;24.76;32.32
4012;BME280;2020;48.682;9.024;2023-06-14T09:50:23;96147.69;;;24.44;31.26
4012;BME280;2020;48.682;9.024;2023-06-14T09:52:52;96157.22;;;23.46;32.29
4012;BME280;2020;48.682;9.024;2023-06-14T09:55:18;96146.09;;;22.75;32.70
4012;BME280;2020;48.682;9.024;2023-06-14T09:57:45;96157.00;;;22.62;32.20
4012;BME280;2020;48.682;9.024;2023-06-14T10:00:13;96150.66;;;23.14;31.61
4012;BME280;2020;48.682;9.024;2023-06-14T10:02:42;96146.13;;;23.49;30.75
4012;BME280;2020;48.682;9.024;2023-06-14T10:05:15;96141.28;;;23.90;29.78
4012;BME280;2020;48.682;9.024;2023-06-14T10:07:48;96145.91;;;24.22;31.44
4012;BME280;2020;48.682;9.024;2023-06-14T10:10:15;96145.72;;;24.29;30.13
4012;BME280;2020;48.682;9.024;2023-06-14T10:12:41;96136.81;;;24.46;29.63
4012;BME280;2020;48.682;9.024;2023-06-14T10:15:20;96147.81;;;24.55;29.20
4012;BME280;2020;48.682;9.024;2023-06-14T10:17:53;96144.97;;;24.66;28.19
4012;BME280;2020;48.682;9.024;2023-06-14T10:20:36;96149.75;;;24.97;28.08
4012;BME280;2020;48.682;9.024;2023-06-14T10:23:08;96140.91;;;24.86;29.34
4012;BME280;2020;48.682;9.024;2023-06-14T10:25:35;96135.34;;;24.88;28.01
4012;BME280;2020;48.682;9.024;2023-06-14T10:28:20;96136.25;;;25.09;29.16
4012;BME280;2020;48.682;9.024;2023-06-14T10:31:07;96134.13;;;25.49;29.08
4012;BME280;2020;48.682;9.024;2023-06-14T10:33:34;96136.16;;;25.36;29.16
4012;BME280;2020;48.682;9.024;2023-06-14T10:36:31;96141.81;;;25.02;29.96
4012;BME280;2020;48.682;9.024;2023-06-14T10:39:07;96139.50;;;24.73;29.85
4012;BME280;2020;48.682;9.024;2023-06-14T10:41:39;96145.44;;;24.58;29.95
4012;BME280;2020;48.682;9.024;2023-06-14T10:44:32;96140.59;;;24.22;29.95
4012;BME280;2020;48.682;9.024;2023-06-14T10:47:01;96143.44;;;23.93;30.10
4012;BME280;2020;48.682;9.024;2023-06-14T10:49:40;96137.56;;;24.41;30.11
4012;BME280;2020;48.682;9.024;2023-06-14T10:52:14;96136.75;;;24.68;29.23
4012;BME280;2020;48.682;9.024;2023-06-14T10:55:12;96147.31;;;24.58;30.53
4012;BME280;2020;48.682;9.024;2023-06-14T10:57:54;96138.03;;;23.83;30.97
4012;BME280;2020;48.682;9.024;2023-06-14T11:00:27;96145.34;;;24.20;30.87
4012;BME280;2020;48.682;9.024;2023-06-14T11:03:24;96136.88;;;24.78;29.66
4012;BME280;2020;48.682;9.024;2023-06-14T11:05:59;96131.69;;;24.99;29.88
4012;BME280;2020;48.682;9.024;2023-06-14T11:08:51;96134.13;;;25.49;29.25
4012;BME280;2020;48.682;9.024;2023-06-14T11:11:22;96129.44;;;25.77;28.61
4012;BME280;2020;48.682;9.024;2023-06-14T11:13:48;96141.31;;;25.05;28.08
4012;BME280;2020;48.682;9.024;2023-06-14T11:16:15;96138.09;;;25.03;28.55
4012;BME280;2020;48.682;9.024;2023-06-14T11:18:42;96134.03;;;25.38;28.34
4012;BME280;2020;48.682;9.024;2023-06-14T11:21:07;96136.41;;;25.30;28.13
4012;BME280;2020;48.682;9.024;2023-06-14T11:23:34;96142.69;;;25.61;27.82
4012;BME280;2020;48.682;9.024;2023-06-14T11:25:59;96133.69;;;25.73;26.82
4012;BME280;2020;48.682;9.024;2023-06-14T11:28:24;96129.94;;;25.74;26.60
4012;BME280;2020;48.682;9.024;2023-06-14T11:31:00;96127.38;;;25.89;27.08
4012;BME280;2020;48.682;9.024;2023-06-14T11:33:25;96131.16;;;26.09;28.25
4012;BME280;2020;48.682;9.024;2023-06-14T11:35:51;96135.41;;;26.05;28.08
4012;BME280;2020;48.682;9.024;2023-06-14T11:38:16;96134.81;;;25.87;28.10
4012;BME280;2020;48.682;9.024;2023-06-14T11:40:41;96130.38;;;25.50;28.37
4012;BME280;2020;48.682;9.024;2023-06-14T11:43:07;96115.09;;;24.87;28.90
4012;BME280;2020;48.682;9.024;2023-06-14T11:45:33;96133.09;;;24.74;29.60
4012;BME280;2020;48.682;9.024;2023-06-14T11:47:58;96127.72;;;24.69;29.83
4012;BME280;2020;48.682;9.024;2023-06-14T11:50:25;96125.41;;;24.78;30.34
4012;BME280;2020;48.682;9.024;2023-06-14T11:52:59;96128.66;;;24.52;30.74
4012;BME280;2020;48.682;9.024;2023-06-14T11:55:36;96124.00;;;24.70;30.87
4012;BME280;2020;48.682;9.024;2023-06-14T11:58:02;96117.25;;;24.90;30.42
4012;BME280;2020;48.682;9.024;2023-06-14T12:00:28;96127.34;;;24.28;31.18
4012;BME280;2020;48.682;9.024;2023-06-14T12:02:55;96132.56;;;24.17;30.95
4012;BME280;2020;48.682;9.024;2023-06-14T12:05:24;96129.75;;;24.02;30.96
4012;BME280;2020;48.682;9.024;2023-06-14T12:07:50;96141.97;;;24.03;31.40
4012;BME280;2020;48.682;9.024;2023-06-14T12:10:18;96127.44;;;24.38;31.13
4012;BME280;2020;48.682;9.024;2023-06-14T12:12:43;96131.41;;;24.63;30.80
4012;BME280;2020;48.682;9.024;2023-06-14T12:15:10;96130.03;;;24.93;30.60
4012;BME280;2020;48.682;9.024;2023-06-14T12:17:39;96121.72;;;25.27;29.71
4012;BME280;2020;48.682;9.024;2023-06-14T12:20:11;96121.91;;;25.58;28.80
4012;BME280;2020;48.682;9.024;2023-06-14T12:22:51;96119.28;;;25.74;29.43
4012;BME280;2020;48.682;9.024;2023-06-14T12:27:54;96121.59;;;26.34;28.67
4012;BME280;2020;48.682;9.024;2023-06-14T12:30:20;96116.19;;;25.92;27.46
4012;BME280;2020;48.682;9.024;2023-06-14T12:32:45;96115.41;;;25.44;28.24
4012;BME280;2020;48.682;9.024;2023-06-14T12:35:10;96115.25;;;25.13;28.90
4012;BME280;2020;48.682;9.024;2023-06-14T12:37:36;96123.22;;;25.55;28.73
4012;BME280;2020;48.682;9.024;2023-06-14T12:40:01;96118.31;;;25.32;28.37
4012;BME280;2020;48.682;9.024;2023-06-14T12:42:30;96120.16;;;25.31;28.52
4012;BME280;2020;48.682;9.024;2023-06-14T12:44:56;96124.56;;;25.58;28.81
4012;BME280;2020;48.682;9.024;2023-06-14T12:47:21;96119.94;;;26.02;27.75
4012;BME280;2020;48.682;9.024;2023-06-14T12:49:46;96119.41;;;26.05;27.66
4012;BME280;2020;48.682;9.024;2023-06-14T12:52:11;96117.34;;;26.27;27.80
4012;BME280;2020;48.682;9.024;2023-06-14T12:54:37;96111.94;;;26.07;27.38
4012;BME280;2020;48.682;9.024;2023-06-14T12:57:04;96114.66;;;26.22;27.65
4012;BME280;2020;48.682;9.024;2023-06-14T12:59:29;96120.84;;;26.54;28.48
4012;BME280;2020;48.682;9.024;2023-06-14T13:01:58;96120.03;;;26.48;27.36
4012;BME280;2020;48.682;9.024;2023-06-14T13:04:24;96120.53;;;26.81;27.48
4012;BME280;2020;48.682;9.024;2023-06-14T13:06:49;96116.28;;;27.01;26.42
4012;BME280;2020;48.682;9.024;2023-06-14T13:09:14;96118.94;;;26.60;26.74
4012;BME280;2020;48.682;9.024;2023-06-14T13:11:40;96110.94;;;26.28;27.05
4012;BME280;2020;48.682;9.024;2023-06-14T13:14:05;96122.16;;;26.56;26.27
4012;BME280;2020;48.682;9.024;2023-06-14T13:16:31;96126.72;;;26.92;26.61
4012;BME280;2020;48.682;9.024;2023-06-14T13:18:56;96120.56;;;26.71;26.65
4012;BME280;2020;48.682;9.024;2023-06-14T13:21:21;96126.41;;;26.47;26.46
4012;BME280;2020;48.682;9.024;2023-06-14T13:23:46;96121.06;;;26.21;27.21